TimeEDT,TemperatureF,Dew PointF,Humidity,Sea Level PressureIn,VisibilityMPH,Wind Direction,Wind SpeedMPH,Gust SpeedMPH,PrecipitationIn,Events,Conditions,WindDirDegrees,DateUTC
12:15 AM,48.2,42.8,82,29.97,10.0,Calm,Calm,-,N/A,,Mostly Cloudy,0,2013-10-22 04:15:00
12:35 AM,46.4,42.8,87,29.97,10.0,Calm,Calm,-,N/A,,Mostly Cloudy,0,2013-10-22 04:35:00
12:55 AM,46.4,42.8,87,29.98,10.0,SSW,3.5,-,N/A,,Scattered Clouds,210,2013-10-22 04:55:00
1:15 AM,48.2,42.8,82,29.98,10.0,SW,3.5,-,N/A,,Overcast,220,2013-10-22 05:15:00
1:35 AM,50.0,44.6,82,29.99,10.0,Calm,Calm,-,N/A,,Overcast,0,2013-10-22 05:35:00
1:55 AM,53.6,46.4,77,30.00,10.0,WNW,4.6,-,N/A,Rain,Light Rain,290,2013-10-22 05:55:00
2:15 AM,51.8,46.4,82,30.00,10.0,WNW,4.6,-,N/A,Rain,Light Rain,300,2013-10-22 06:15:00
2:35 AM,51.8,46.4,82,30.01,10.0,WNW,4.6,-,N/A,Rain,Rain,300,2013-10-22 06:35:00
2:55 AM,50.0,48.2,94,30.01,10.0,WNW,4.6,-,N/A,Rain,Light Rain,290,2013-10-22 06:55:00
3:15 AM,50.0,48.2,94,30.01,10.0,NW,5.8,-,N/A,Rain,Light Rain,320,2013-10-22 07:15:00
3:35 AM,50.0,48.2,94,30.02,10.0,NNW,12.7,16.1,N/A,Rain,Light Rain,340,2013-10-22 07:35:00
3:55 AM,46.4,44.6,93,30.03,10.0,NNW,11.5,19.6,N/A,Rain,Rain,330,2013-10-22 07:55:00
4:15 AM,46.4,44.6,93,30.03,10.0,NNW,11.5,17.3,N/A,Rain,Light Rain,340,2013-10-22 08:15:00
4:35 AM,46.4,44.6,93,30.03,10.0,NNW,8.1,-,N/A,Rain,Light Rain,340,2013-10-22 08:35:00
4:55 AM,44.6,42.8,93,30.04,7.0,North,10.4,-,N/A,Rain,Rain,350,2013-10-22 08:55:00
5:15 AM,44.6,42.8,93,30.04,7.0,North,8.1,-,N/A,Rain,Light Rain,360,2013-10-22 09:15:00
5:35 AM,44.6,42.8,93,30.05,7.0,North,8.1,-,N/A,Rain,Light Rain,360,2013-10-22 09:35:00
5:55 AM,44.6,42.8,93,30.05,7.0,North,9.2,-,N/A,Rain,Light Rain,350,2013-10-22 09:55:00
6:15 AM,41.0,41.0,100,30.06,7.0,North,9.2,-,N/A,Rain,Light Rain,10,2013-10-22 10:15:00
6:35 AM,41.0,41.0,100,30.06,7.0,NNE,4.6,-,N/A,Rain,Rain,20,2013-10-22 10:35:00
6:55 AM,41.0,39.2,93,30.06,10.0,North,3.5,-,N/A,,Light Drizzle,10,2013-10-22 10:55:00
7:15 AM,41.0,37.4,87,30.06,10.0,North,3.5,-,N/A,,Overcast,360,2013-10-22 11:15:00
7:35 AM,41.0,37.4,87,30.06,10.0,North,3.5,-,N/A,,Overcast,360,2013-10-22 11:35:00
7:55 AM,41.0,37.4,87,30.06,10.0,North,4.6,-,N/A,,Overcast,360,2013-10-22 11:55:00
8:15 AM,41.0,37.4,87,30.07,10.0,North,3.5,-,N/A,,Mostly Cloudy,360,2013-10-22 12:15:00
8:35 AM,39.2,37.4,93,30.06,10.0,Calm,Calm,-,N/A,,Scattered Clouds,0,2013-10-22 12:35:00
8:55 AM,39.2,35.6,87,30.07,10.0,Calm,Calm,-,N/A,,Clear,0,2013-10-22 12:55:00
9:15 AM,39.2,37.4,93,30.08,10.0,Calm,Calm,-,N/A,,Clear,0,2013-10-22 13:15:00
9:35 AM,41.0,37.4,87,30.08,10.0,NE,3.5,-,N/A,,Clear,40,2013-10-22 13:35:00
9:55 AM,42.8,37.4,81,30.08,10.0,NNE,3.5,-,N/A,,Clear,30,2013-10-22 13:55:00
10:15 AM,42.8,33.8,70,30.08,10.0,NE,4.6,-,N/A,,Clear,40,2013-10-22 14:15:00
10:35 AM,44.6,35.6,71,30.08,10.0,NNE,5.8,-,N/A,,Clear,30,2013-10-22 14:35:00
10:55 AM,44.6,32.0,61,30.07,10.0,ENE,5.8,-,N/A,,Clear,60,2013-10-22 14:55:00
11:15 AM,46.4,32.0,57,30.07,10.0,NE,4.6,-,N/A,,Clear,40,2013-10-22 15:15:00
11:35 AM,46.4,32.0,57,30.06,10.0,NE,6.9,-,N/A,,Clear,50,2013-10-22 15:35:00
11:55 AM,46.4,30.2,53,30.06,10.0,Calm,Calm,-,N/A,,Clear,0,2013-10-22 15:55:00
12:15 PM,46.4,30.2,53,30.06,10.0,Calm,Calm,-,N/A,,Clear,0,2013-10-22 16:15:00
12:35 PM,48.2,32.0,54,30.05,10.0,ENE,5.8,-,N/A,,Clear,60,2013-10-22 16:35:00
12:55 PM,46.4,30.2,53,30.04,10.0,Calm,Calm,-,N/A,,Clear,0,2013-10-22 16:55:00
1:15 PM,50.0,32.0,50,30.02,10.0,Calm,Calm,-,N/A,,Clear,0,2013-10-22 17:15:00
1:35 PM,48.2,30.2,50,30.01,10.0,Calm,Calm,-,N/A,,Clear,0,2013-10-22 17:35:00
1:55 PM,50.0,32.0,50,30.00,10.0,East,3.5,-,N/A,,Clear,100,2013-10-22 17:55:00
2:15 PM,50.0,30.2,47,29.98,10.0,Calm,Calm,-,N/A,,Clear,0,2013-10-22 18:15:00
2:35 PM,51.8,32.0,47,29.97,10.0,South,3.5,-,N/A,,Clear,190,2013-10-22 18:35:00
2:55 PM,50.0,30.2,47,29.95,10.0,Calm,Calm,-,N/A,,Clear,0,2013-10-22 18:55:00
3:15 PM,51.8,32.0,47,29.95,10.0,Calm,Calm,-,N/A,,Clear,0,2013-10-22 19:15:00
3:35 PM,51.8,32.0,47,29.94,10.0,ENE,3.5,-,N/A,,Clear,60,2013-10-22 19:35:00
3:55 PM,51.8,32.0,47,29.93,10.0,Calm,Calm,-,N/A,,Clear,0,2013-10-22 19:55:00
4:15 PM,51.8,32.0,47,29.93,10.0,Calm,Calm,-,N/A,,Clear,0,2013-10-22 20:15:00
4:35 PM,51.8,32.0,47,29.93,10.0,Calm,Calm,-,N/A,,Clear,0,2013-10-22 20:35:00
4:55 PM,51.8,32.0,47,29.92,10.0,SE,3.5,-,N/A,,Clear,130,2013-10-22 20:55:00
5:15 PM,53.6,32.0,44,29.91,10.0,South,3.5,-,N/A,,Clear,190,2013-10-22 21:15:00
5:35 PM,53.6,32.0,44,29.91,10.0,Calm,Calm,-,N/A,,Clear,0,2013-10-22 21:35:00
5:55 PM,51.8,32.0,47,29.90,10.0,Calm,Calm,-,N/A,,Clear,0,2013-10-22 21:55:00
6:15 PM,51.8,33.8,50,29.90,10.0,Calm,Calm,-,N/A,,Clear,0,2013-10-22 22:15:00
6:35 PM,50.0,33.8,54,29.90,10.0,East,3.5,-,N/A,,Clear,90,2013-10-22 22:35:00
6:55 PM,48.2,35.6,62,29.90,10.0,Calm,Calm,-,N/A,,Clear,0,2013-10-22 22:55:00
7:15 PM,46.4,35.6,66,29.89,10.0,Calm,Calm,-,N/A,,Clear,0,2013-10-22 23:15:00
7:35 PM,44.6,35.6,71,29.90,10.0,Calm,Calm,-,N/A,,Clear,0,2013-10-22 23:35:00
7:55 PM,44.6,37.4,76,29.90,10.0,Calm,Calm,-,N/A,,Clear,0,2013-10-22 23:55:00
8:15 PM,44.6,37.4,76,29.90,10.0,Calm,Calm,-,N/A,,Clear,0,2013-10-23 00:15:00
8:35 PM,42.8,39.2,87,29.90,10.0,Calm,Calm,-,N/A,,Clear,0,2013-10-23 00:35:00
8:55 PM,42.8,39.2,87,29.90,10.0,Calm,Calm,-,N/A,,Clear,0,2013-10-23 00:55:00
9:15 PM,44.6,39.2,81,29.90,10.0,Calm,Calm,-,N/A,,Mostly Cloudy,0,2013-10-23 01:15:00
9:35 PM,42.8,41.0,93,29.90,10.0,Calm,Calm,-,N/A,,Overcast,0,2013-10-23 01:35:00
9:55 PM,42.8,41.0,93,29.90,10.0,Calm,Calm,-,N/A,,Overcast,0,2013-10-23 01:55:00
10:15 PM,42.8,41.0,93,29.88,10.0,SSE,3.5,-,N/A,,Overcast,160,2013-10-23 02:15:00
10:35 PM,42.8,41.0,93,29.88,10.0,Calm,Calm,-,N/A,,Overcast,0,2013-10-23 02:35:00
11:15 PM,44.6,41.0,87,29.87,10.0,Calm,Calm,-,N/A,,Overcast,0,2013-10-23 03:15:00
11:35 PM,44.6,41.0,87,29.87,10.0,SW,3.5,-,N/A,,Overcast,220,2013-10-23 03:35:00
11:55 PM,44.6,41.0,87,29.87,10.0,Calm,Calm,-,N/A,,Overcast,0,2013-10-23 03:55:00